sensor_id;sensor_type;location;lat;lon;timestamp;pressure;altitude;pressure_sealevel;temperature;humidity
60355;BME280;46198;51.464;-0.066;2023-06-22T00:00:35;101762.66;;;19.18;100.00
60355;BME280;46198;51.464;-0.066;2023-06-22T00:03:03;101770.09;;;19.17;100.00
60355;BME280;46198;51.464;-0.066;2023-06-22T00:05:31;101767.50;;;19.11;100.00
60355;BME280;46198;51.464;-0.066;2023-06-22T00:08:03;101763.59;;;19.07;100.00
60355;BME280;46198;51.464;-0.066;2023-06-22T00:10:32;101771.03;;;19.06;100.00
60355;BME280;46198;51.464;-0.066;2023-06-22T00:13:00;101764.34;;;19.02;100.00
60355;BME280;46198;51.464;-0.066;2023-06-22T00:15:28;101759.56;;;18.92;100.00
60355;BME280;46198;51.464;-0.066;2023-06-22T00:17:56;101763.88;;;18.88;100.00
60355;BME280;46198;51.464;-0.066;2023-06-22T00:20:26;101761.06;;;18.83;100.00
60355;BME280;46198;51.464;-0.066;2023-06-22T00:22:57;101756.06;;;18.80;100.00
60355;BME280;46198;51.464;-0.066;2023-06-22T00:25:27;101753.22;;;18.75;100.00
60355;BME280;46198;51.464;-0.066;2023-06-22T00:27:55;101762.22;;;18.70;100.00
60355;BME280;46198;51.464;-0.066;2023-06-22T00:30:23;101760.22;;;18.66;100.00
60355;BME280;46198;51.464;-0.066;2023-06-22T00:32:52;101762.38;;;18.64;100.00
60355;BME280;46198;51.464;-0.066;2023-06-22T00:35:23;101767.81;;;18.58;100.00
60355;BME280;46198;51.464;-0.066;2023-06-22T00:37:56;101762.31;;;18.58;100.00
60355;BME280;46198;51.464;-0.066;2023-06-22T00:40:29;101766.56;;;18.49;100.00
60355;BME280;46198;51.464;-0.066;2023-06-22T00:42:58;101771.25;;;18.49;100.00
60355;BME280;46198;51.464;-0.066;2023-06-22T00:45:27;101771.78;;;18.51;100.00
60355;BME280;46198;51.464;-0.066;2023-06-22T00:47:56;101767.31;;;18.45;100.00
60355;BME280;46198;51.464;-0.066;2023-06-22T00:50:28;101773.53;;;18.40;100.00
60355;BME280;46198;51.464;-0.066;2023-06-22T00:53:03;101768.22;;;18.33;100.00
60355;BME280;46198;51.464;-0.066;2023-06-22T00:55:37;101771.22;;;18.32;100.00
60355;BME280;46198;51.464;-0.066;2023-06-22T00:58:06;101768.41;;;18.27;100.00
60355;BME280;46198;51.464;-0.066;2023-06-22T01:00:38;101775.69;;;18.21;100.00
60355;BME280;46198;51.464;-0.066;2023-06-22T01:03:06;101765.47;;;18.16;100.00
60355;BME280;46198;51.464;-0.066;2023-06-22T01:05:37;101759.38;;;18.14;100.00
60355;BME280;46198;51.464;-0.066;2023-06-22T01:08:14;101763.13;;;18.08;100.00
60355;BME280;46198;51.464;-0.066;2023-06-22T01:10:49;101761.19;;;18.09;100.00
60355;BME280;46198;51.464;-0.066;2023-06-22T01:13:28;101760.88;;;18.05;100.00
60355;BME280;46198;51.464;-0.066;2023-06-22T01:16:00;101761.94;;;18.04;100.00
60355;BME280;46198;51.464;-0.066;2023-06-22T01:18:32;101770.66;;;18.01;100.00
60355;BME280;46198;51.464;-0.066;2023-06-22T01:21:04;101766.19;;;17.95;100.00
60355;BME280;46198;51.464;-0.066;2023-06-22T01:23:47;101758.66;;;17.90;100.00
60355;BME280;46198;51.464;-0.066;2023-06-22T01:26:24;101759.38;;;17.86;100.00
60355;BME280;46198;51.464;-0.066;2023-06-22T01:28:59;101762.63;;;17.83;100.00
60355;BME280;46198;51.464;-0.066;2023-06-22T01:31:28;101761.81;;;17.82;100.00
60355;BME280;46198;51.464;-0.066;2023-06-22T01:34:00;101767.78;;;17.79;100.00
60355;BME280;46198;51.464;-0.066;2023-06-22T01:36:30;101757.50;;;17.75;100.00
60355;BME280;46198;51.464;-0.066;2023-06-22T01:39:00;101752.50;;;17.71;100.00
60355;BME280;46198;51.464;-0.066;2023-06-22T01:41:29;101753.59;;;17.70;100.00
60355;BME280;46198;51.464;-0.066;2023-06-22T01:44:00;101760.63;;;17.66;100.00
60355;BME280;46198;51.464;-0.066;2023-06-22T01:46:28;101752.88;;;17.63;100.00
60355;BME280;46198;51.464;-0.066;2023-06-22T01:48:57;101765.19;;;17.61;100.00
60355;BME280;46198;51.464;-0.066;2023-06-22T01:51:25;101757.22;;;17.59;100.00
60355;BME280;46198;51.464;-0.066;2023-06-22T01:53:53;101764.25;;;17.55;100.00
60355;BME280;46198;51.464;-0.066;2023-06-22T01:56:22;101758.16;;;17.53;100.00
60355;BME280;46198;51.464;-0.066;2023-06-22T01:58:55;101764.16;;;17.50;100.00
60355;BME280;46198;51.464;-0.066;2023-06-22T02:01:30;101759.75;;;17.49;100.00
60355;BME280;46198;51.464;-0.066;2023-06-22T02:04:04;101761.91;;;17.47;100.00
60355;BME280;46198;51.464;-0.066;2023-06-22T02:06:42;101761.31;;;17.45;100.00
60355;BME280;46198;51.464;-0.066;2023-06-22T02:09:14;101754.66;;;17.41;100.00
60355;BME280;46198;51.464;-0.066;2023-06-22T02:11:45;101756.19;;;17.37;100.00
60355;BME280;46198;51.464;-0.066;2023-06-22T02:14:15;101749.66;;;17.38;100.00
60355;BME280;46198;51.464;-0.066;2023-06-22T02:16:47;101752.72;;;17.41;100.00
60355;BME280;46198;51.464;-0.066;2023-06-22T02:19:15;101759.88;;;17.42;100.00
60355;BME280;46198;51.464;-0.066;2023-06-22T02:21:45;101761.44;;;17.38;100.00
60355;BME280;46198;51.464;-0.066;2023-06-22T02:24:13;101754.53;;;17.36;100.00
60355;BME280;46198;51.464;-0.066;2023-06-22T02:26:42;101756.44;;;17.35;100.00
60355;BME280;46198;51.464;-0.066;2023-06-22T02:29:12;101748.94;;;17.31;100.00
60355;BME280;46198;51.464;-0.066;2023-06-22T02:31:42;101753.34;;;17.32;100.00
60355;BME280;46198;51.464;-0.066;2023-06-22T02:34:13;101750.25;;;17.28;100.00
60355;BME280;46198;51.464;-0.066;2023-06-22T02:36:45;101749.91;;;17.24;100.00
60355;BME280;46198;51.464;-0.066;2023-06-22T02:39:19;101755.88;;;17.21;100.00
60355;BME280;46198;51.464;-0.066;2023-06-22T02:41:49;101755.53;;;17.18;100.00
60355;BME280;46198;51.464;-0.066;2023-06-22T02:44:17;101753.75;;;17.12;100.00
60355;BME280;46198;51.464;-0.066;2023-06-22T02:46:48;101759.50;;;17.10;100.00
60355;BME280;46198;51.464;-0.066;2023-06-22T02:49:18;101760.56;;;17.09;100.00
60355;BME280;46198;51.464;-0.066;2023-06-22T02:51:47;101760.56;;;17.09;100.00
60355;BME280;46198;51.464;-0.066;2023-06-22T02:54:19;101757.47;;;17.05;100.00
60355;BME280;46198;51.464;-0.066;2023-06-22T02:56:50;101760.91;;;17.01;100.00
60355;BME280;46198;51.464;-0.066;2023-06-22T02:59:20;101769.97;;;17.01;100.00
60355;BME280;46198;51.464;-0.066;2023-06-22T03:01:54;101768.53;;;16.99;100.00
60355;BME280;46198;51.464;-0.066;2023-06-22T03:04:28;101767.38;;;16.95;100.00
60355;BME280;46198;51.464;-0.066;2023-06-22T03:06:58;101770.13;;;16.95;100.00
60355;BME280;46198;51.464;-0.066;2023-06-22T03:09:29;101761.06;;;16.94;100.00
60355;BME280;46198;51.464;-0.066;2023-06-22T03:11:57;101765.56;;;17.00;100.00
60355;BME280;46198;51.464;-0.066;2023-06-22T03:14:33;101761.78;;;16.90;100.00
60355;BME280;46198;51.464;-0.066;2023-06-22T03:17:04;101761.41;;;16.86;100.00
60355;BME280;46198;51.464;-0.066;2023-06-22T03:19:34;101753.41;;;16.84;100.00
60355;BME280;46198;51.464;-0.066;2023-06-22T03:22:02;101754.63;;;16.89;100.00
60355;BME280;46198;51.464;-0.066;2023-06-22T03:24:31;101758.06;;;16.84;100.00
60355;BME280;46198;51.464;-0.066;2023-06-22T03:27:00;101765.97;;;16.80;100.00
60355;BME280;46198;51.464;-0.066;2023-06-22T03:29:33;101762.34;;;16.80;100.00
60355;BME280;46198;51.464;-0.066;2023-06-22T03:32:01;101757.25;;;16.83;100.00
60355;BME280;46198;51.464;-0.066;2023-06-22T03:34:33;101752.72;;;16.77;100.00
60355;BME280;46198;51.464;-0.066;2023-06-22T03:37:04;101751.97;;;16.82;100.00
60355;BME280;46198;51.464;-0.066;2023-06-22T03:39:33;101752.91;;;16.76;100.00
60355;BME280;46198;51.464;-0.066;2023-06-22T03:42:02;101741.59;;;16.72;100.00
60355;BME280;46198;51.464;-0.066;2023-06-22T03:44:31;101740.41;;;16.68;100.00
60355;BME280;46198;51.464;-0.066;2023-06-22T03:46:59;101737.53;;;16.63;100.00
60355;BME280;46198;51.464;-0.066;2023-06-22T03:49:29;101728.25;;;16.64;100.00
60355;BME280;46198;51.464;-0.066;2023-06-22T03:51:59;101725.38;;;16.59;100.00
60355;BME280;46198;51.464;-0.066;2023-06-22T03:54:28;101734.66;;;16.58;100.00
60355;BME280;46198;51.464;-0.066;2023-06-22T03:56:57;101728.13;;;16.59;100.00
60355;BME280;46198;51.464;-0.066;2023-06-22T03:59:25;101729.66;;;16.55;100.00
60355;BME280;46198;51.464;-0.066;2023-06-22T04:01:54;101723.81;;;16.51;100.00
60355;BME280;46198;51.464;-0.066;2023-06-22T04:04:22;101714.78;;;16.51;100.00
60355;BME280;46198;51.464;-0.066;2023-06-22T04:06:50;101726.78;;;16.50;100.00
60355;BME280;46198;51.464;-0.066;2023-06-22T04:09:19;101728.81;;;16.54;100.00
60355;BME280;46198;51.464;-0.066;2023-06-22T04:11:48;101735.13;;;16.55;100.00
60355;BME280;46198;51.464;-0.066;2023-06-22T04:14:16;101737.88;;;16.55;100.00
60355;BME280;46198;51.464;-0.066;2023-06-22T04:16:44;101740.75;;;16.60;100.00
60355;BME280;46198;51.464;-0.066;2023-06-22T04:19:12;101746.94;;;16.55;100.00
60355;BME280;46198;51.464;-0.066;2023-06-22T04:21:43;101741.22;;;16.57;100.00
60355;BME280;46198;51.464;-0.066;2023-06-22T04:24:12;101744.31;;;16.60;100.00
60355;BME280;46198;51.464;-0.066;2023-06-22T04:26:41;101752.81;;;16.59;100.00
60355;BME280;46198;51.464;-0.066;2023-06-22T04:29:12;101742.88;;;16.58;100.00
60355;BME280;46198;51.464;-0.066;2023-06-22T04:31:40;101749.44;;;16.57;100.00
60355;BME280;46198;51.464;-0.066;2023-06-22T04:34:09;101749.44;;;16.57;100.00
60355;BME280;46198;51.464;-0.066;2023-06-22T04:36:38;101742.31;;;16.56;100.00
60355;BME280;46198;51.464;-0.066;2023-06-22T04:39:10;101748.16;;;16.59;100.00
60355;BME280;46198;51.464;-0.066;2023-06-22T04:41:40;101753.16;;;16.62;100.00
60355;BME280;46198;51.464;-0.066;2023-06-22T04:44:11;101750.19;;;16.64;100.00
60355;BME280;46198;51.464;-0.066;2023-06-22T04:46:40;101748.63;;;16.68;100.00
60355;BME280;46198;51.464;-0.066;2023-06-22T04:49:08;101743.75;;;16.70;100.00
60355;BME280;46198;51.464;-0.066;2023-06-22T04:51:39;101744.09;;;16.74;100.00
60355;BME280;46198;51.464;-0.066;2023-06-22T04:54:08;101748.25;;;16.76;100.00
60355;BME280;46198;51.464;-0.066;2023-06-22T04:56:37;101743.16;;;16.80;100.00
60355;BME280;46198;51.464;-0.066;2023-06-22T04:59:09;101747.09;;;16.84;100.00
60355;BME280;46198;51.464;-0.066;2023-06-22T05:01:41;101743.38;;;16.90;100.00
60355;BME280;46198;51.464;-0.066;2023-06-22T05:04:10;101740.41;;;16.92;100.00
60355;BME280;46198;51.464;-0.066;2023-06-22T05:06:39;101745.78;;;16.98;100.00
60355;BME280;46198;51.464;-0.066;2023-06-22T05:09:07;101752.81;;;17.06;100.00
60355;BME280;46198;51.464;-0.066;2023-06-22T05:11:36;101755.66;;;17.11;100.00
60355;BME280;46198;51.464;-0.066;2023-06-22T05:14:04;101756.38;;;17.18;100.00
60355;BME280;46198;51.464;-0.066;2023-06-22T05:16:33;101745.75;;;17.22;100.00
60355;BME280;46198;51.464;-0.066;2023-06-22T05:19:01;101745.69;;;17.34;100.00
60355;BME280;46198;51.464;-0.066;2023-06-22T05:21:30;101754.66;;;17.41;100.00
60355;BME280;46198;51.464;-0.066;2023-06-22T05:23:59;101742.09;;;17.45;100.00
60355;BME280;46198;51.464;-0.066;2023-06-22T05:26:30;101750.44;;;17.50;100.00
60355;BME280;46198;51.464;-0.066;2023-06-22T05:28:59;101753.53;;;17.54;100.00
60355;BME280;46198;51.464;-0.066;2023-06-22T05:31:28;101754.09;;;17.56;100.00
60355;BME280;46198;51.464;-0.066;2023-06-22T05:33:58;101747.41;;;17.63;100.00
60355;BME280;46198;51.464;-0.066;2023-06-22T05:36:26;101758.16;;;17.65;100.00
60355;BME280;46198;51.464;-0.066;2023-06-22T05:38:56;101754.66;;;17.69;100.00
60355;BME280;46198;51.464;-0.066;2023-06-22T05:41:24;101763.00;;;17.75;100.00
60355;BME280;46198;51.464;-0.066;2023-06-22T05:43:53;101759.31;;;17.81;100.00
60355;BME280;46198;51.464;-0.066;2023-06-22T05:46:21;101758.31;;;17.87;100.00
60355;BME280;46198;51.464;-0.066;2023-06-22T05:48:49;101756.50;;;17.92;100.00
60355;BME280;46198;51.464;-0.066;2023-06-22T05:51:18;101754.09;;;17.96;100.00
60355;BME280;46198;51.464;-0.066;2023-06-22T05:53:46;101754.50;;;18.05;100.00
60355;BME280;46198;51.464;-0.066;2023-06-22T05:56:17;101756.19;;;18.06;100.00
60355;BME280;46198;51.464;-0.066;2023-06-22T05:58:45;101758.22;;;18.10;100.00
60355;BME280;46198;51.464;-0.066;2023-06-22T06:01:14;101758.53;;;18.14;100.00
60355;BME280;46198;51.464;-0.066;2023-06-22T06:03:42;101757.31;;;18.22;100.00
60355;BME280;46198;51.464;-0.066;2023-06-22T06:06:11;101764.88;;;18.31;100.00
60355;BME280;46198;51.464;-0.066;2023-06-22T06:08:41;101759.38;;;18.31;100.00
60355;BME280;46198;51.464;-0.066;2023-06-22T06:11:09;101761.41;;;18.36;100.00
60355;BME280;46198;51.464;-0.066;2023-06-22T06:13:37;101764.72;;;18.38;100.00
60355;BME280;46198;51.464;-0.066;2023-06-22T06:16:05;101760.56;;;18.52;100.00
60355;BME280;46198;51.464;-0.066;2023-06-22T06:18:33;101752.53;;;18.51;100.00
60355;BME280;46198;51.464;-0.066;2023-06-22T06:21:01;101756.16;;;18.51;100.00
60355;BME280;46198;51.464;-0.066;2023-06-22T06:23:29;101749.56;;;18.52;100.00
60355;BME280;46198;51.464;-0.066;2023-06-22T06:25:58;101750.22;;;18.59;100.00
60355;BME280;46198;51.464;-0.066;2023-06-22T06:28:28;101750.66;;;18.51;100.00
60355;BME280;46198;51.464;-0.066;2023-06-22T06:30:56;101746.97;;;18.63;100.00
60355;BME280;46198;51.464;-0.066;2023-06-22T06:33:24;101751.97;;;18.66;100.00
60355;BME280;46198;51.464;-0.066;2023-06-22T06:35:52;101750.38;;;18.70;100.00
60355;BME280;46198;51.464;-0.066;2023-06-22T06:38:22;101751.91;;;18.77;100.00
60355;BME280;46198;51.464;-0.066;2023-06-22T06:40:50;101750.97;;;18.72;100.00
60355;BME280;46198;51.464;-0.066;2023-06-22T06:43:20;101747.06;;;18.85;100.00
60355;BME280;46198;51.464;-0.066;2023-06-22T06:45:48;101745.22;;;18.90;100.00
60355;BME280;46198;51.464;-0.066;2023-06-22T06:48:18;101735.84;;;18.91;100.00
60355;BME280;46198;51.464;-0.066;2023-06-22T06:50:46;101736.28;;;19.00;100.00
60355;BME280;46198;51.464;-0.066;2023-06-22T06:53:14;101735.19;;;19.01;100.00
60355;BME280;46198;51.464;-0.066;2023-06-22T06:55:42;101727.31;;;19.10;100.00
60355;BME280;46198;51.464;-0.066;2023-06-22T06:58:12;101730.06;;;19.10;100.00
60355;BME280;46198;51.464;-0.066;2023-06-22T07:00:42;101737.19;;;19.06;100.00
60355;BME280;46198;51.464;-0.066;2023-06-22T07:03:11;101730.44;;;19.18;100.00
60355;BME280;46198;51.464;-0.066;2023-06-22T07:05:39;101735.94;;;19.18;100.00
60355;BME280;46198;51.464;-0.066;2023-06-22T07:08:07;101742.19;;;19.31;100.00
60355;BME280;46198;51.464;-0.066;2023-06-22T07:10:36;101733.69;;;19.37;100.00
60355;BME280;46198;51.464;-0.066;2023-06-22T07:13:04;101741.41;;;19.35;100.00
60355;BME280;46198;51.464;-0.066;2023-06-22T07:15:32;101748.00;;;19.34;100.00
60355;BME280;46198;51.464;-0.066;2023-06-22T07:18:02;101738.66;;;19.35;100.00
60355;BME280;46198;51.464;-0.066;2023-06-22T07:20:30;101727.69;;;19.40;100.00
60355;BME280;46198;51.464;-0.066;2023-06-22T07:22:59;101729.97;;;19.48;100.00
60355;BME280;46198;51.464;-0.066;2023-06-22T07:25:27;101734.47;;;19.55;100.00
60355;BME280;46198;51.464;-0.066;2023-06-22T07:28:00;101723.75;;;19.58;100.00
60355;BME280;46198;51.464;-0.066;2023-06-22T07:30:29;101724.91;;;19.62;100.00
60355;BME280;46198;51.464;-0.066;2023-06-22T07:32:59;101736.66;;;19.75;100.00
60355;BME280;46198;51.464;-0.066;2023-06-22T07:35:32;101729.31;;;19.85;100.00
60355;BME280;46198;51.464;-0.066;2023-06-22T07:38:01;101724.03;;;20.11;100.00
60355;BME280;46198;51.464;-0.066;2023-06-22T07:40:32;101724.03;;;20.43;100.00
60355;BME280;46198;51.464;-0.066;2023-06-22T07:43:00;101724.97;;;20.54;100.00
60355;BME280;46198;51.464;-0.066;2023-06-22T07:45:29;101724.97;;;20.54;100.00
60355;BME280;46198;51.464;-0.066;2023-06-22T07:47:57;101726.94;;;20.58;100.00
60355;BME280;46198;51.464;-0.066;2023-06-22T07:50:25;101722.03;;;20.66;100.00
60355;BME280;46198;51.464;-0.066;2023-06-22T07:52:55;101731.88;;;20.99;100.00
60355;BME280;46198;51.464;-0.066;2023-06-22T07:55:23;101723.34;;;21.06;100.00
60355;BME280;46198;51.464;-0.066;2023-06-22T07:57:52;101717.16;;;21.41;100.00
60355;BME280;46198;51.464;-0.066;2023-06-22T08:00:20;101716.19;;;21.98;100.00
60355;BME280;46198;51.464;-0.066;2023-06-22T08:02:50;101721.22;;;22.32;100.00
60355;BME280;46198;51.464;-0.066;2023-06-22T08:05:19;101717.06;;;22.29;100.00
60355;BME280;46198;51.464;-0.066;2023-06-22T08:07:49;101713.44;;;22.44;100.00
60355;BME280;46198;51.464;-0.066;2023-06-22T08:10:19;101708.66;;;22.96;100.00
60355;BME280;46198;51.464;-0.066;2023-06-22T08:12:47;101708.28;;;23.18;100.00
60355;BME280;46198;51.464;-0.066;2023-06-22T08:15:15;101713.38;;;22.85;100.00
60355;BME280;46198;51.464;-0.066;2023-06-22T08:17:44;101707.56;;;23.57;100.00
60355;BME280;46198;51.464;-0.066;2023-06-22T08:20:12;101715.44;;;23.34;100.00
60355;BME280;46198;51.464;-0.066;2023-06-22T08:22:41;101713.41;;;24.00;100.00
60355;BME280;46198;51.464;-0.066;2023-06-22T08:25:10;101717.22;;;24.09;100.00
60355;BME280;46198;51.464;-0.066;2023-06-22T08:27:44;101712.28;;;24.01;100.00
60355;BME280;46198;51.464;-0.066;2023-06-22T08:30:14;101710.69;;;24.58;100.00
60355;BME280;46198;51.464;-0.066;2023-06-22T08:32:42;101708.00;;;24.48;100.00
60355;BME280;46198;51.464;-0.066;2023-06-22T08:35:11;101712.25;;;24.93;100.00
60355;BME280;46198;51.464;-0.066;2023-06-22T08:37:39;101693.97;;;25.16;100.00
60355;BME280;46198;51.464;-0.066;2023-06-22T08:40:08;101703.88;;;25.23;89.12
60355;BME280;46198;51.464;-0.066;2023-06-22T08:42:41;101704.34;;;25.49;93.99
60355;BME280;46198;51.464;-0.066;2023-06-22T08:45:10;101709.78;;;25.16;91.13
60355;BME280;46198;51.464;-0.066;2023-06-22T08:47:38;101704.78;;;25.37;80.25
60355;BME280;46198;51.464;-0.066;2023-06-22T08:50:09;101702.84;;;25.56;82.03
60355;BME280;46198;51.464;-0.066;2023-06-22T08:52:38;101689.75;;;25.76;88.79
60355;BME280;46198;51.464;-0.066;2023-06-22T08:55:09;101684.31;;;25.90;84.27
60355;BME280;46198;51.464;-0.066;2023-06-22T08:57:37;101689.16;;;26.17;88.63
60355;BME280;46198;51.464;-0.066;2023-06-22T09:00:09;101693.31;;;26.33;79.07
60355;BME280;46198;51.464;-0.066;2023-06-22T09:02:43;101692.97;;;26.21;80.04
60355;BME280;46198;51.464;-0.066;2023-06-22T09:05:12;101692.78;;;26.31;69.29
60355;BME280;46198;51.464;-0.066;2023-06-22T09:07:41;101696.78;;;25.73;68.90
60355;BME280;46198;51.464;-0.066;2023-06-22T09:10:10;101702.31;;;25.35;73.02
60355;BME280;46198;51.464;-0.066;2023-06-22T09:12:39;101707.59;;;25.56;85.93
60355;BME280;46198;51.464;-0.066;2023-06-22T09:15:09;101699.47;;;25.59;77.59
60355;BME280;46198;51.464;-0.066;2023-06-22T09:17:42;101701.41;;;25.78;76.75
60355;BME280;46198;51.464;-0.066;2023-06-22T09:20:11;101710.69;;;25.54;77.60
60355;BME280;46198;51.464;-0.066;2023-06-22T09:22:39;101698.72;;;25.73;76.33
60355;BME280;46198;51.464;-0.066;2023-06-22T09:25:08;101708.34;;;25.18;75.31
60355;BME280;46198;51.464;-0.066;2023-06-22T09:27:36;101715.09;;;25.55;80.28
60355;BME280;46198;51.464;-0.066;2023-06-22T09:30:05;101711.56;;;25.50;72.82
60355;BME280;46198;51.464;-0.066;2023-06-22T09:32:35;101709.41;;;25.47;72.95
60355;BME280;46198;51.464;-0.066;2023-06-22T09:35:05;101699.16;;;25.61;75.34
60355;BME280;46198;51.464;-0.066;2023-06-22T09:37:33;101705.13;;;25.54;73.82
60355;BME280;46198;51.464;-0.066;2023-06-22T09:40:02;101704.66;;;25.47;79.34
60355;BME280;46198;51.464;-0.066;2023-06-22T09:42:35;101710.06;;;25.57;80.59
60355;BME280;46198;51.464;-0.066;2023-06-22T09:45:04;101714.97;;;25.65;68.10
60355;BME280;46198;51.464;-0.066;2023-06-22T09:47:32;101718.72;;;25.56;72.97
60355;BME280;46198;51.464;-0.066;2023-06-22T09:50:02;101711.41;;;25.22;65.45
60355;BME280;46198;51.464;-0.066;2023-06-22T09:52:30;101709.16;;;25.43;71.18
60355;BME280;46198;51.464;-0.066;2023-06-22T09:55:02;101706.00;;;25.50;72.74
60355;BME280;46198;51.464;-0.066;2023-06-22T09:57:30;101708.09;;;25.39;69.29
60355;BME280;46198;51.464;-0.066;2023-06-22T09:59:58;101713.06;;;25.42;70.48
60355;BME280;46198;51.464;-0.066;2023-06-22T10:02:27;101699.63;;;25.68;72.90
60355;BME280;46198;51.464;-0.066;2023-06-22T10:04:56;101706.47;;;25.57;65.08
60355;BME280;46198;51.464;-0.066;2023-06-22T10:07:26;101697.75;;;25.63;71.69
60355;BME280;46198;51.464;-0.066;2023-06-22T10:09:54;101705.03;;;25.78;72.96
60355;BME280;46198;51.464;-0.066;2023-06-22T10:12:22;101699.38;;;25.64;64.03
60355;BME280;46198;51.464;-0.066;2023-06-22T10:14:50;101699.84;;;25.53;68.65
60355;BME280;46198;51.464;-0.066;2023-06-22T10:17:19;101700.59;;;25.58;65.97
60355;BME280;46198;51.464;-0.066;2023-06-22T10:19:47;101687.44;;;25.45;61.26
60355;BME280;46198;51.464;-0.066;2023-06-22T10:22:15;101699.34;;;25.27;65.04
60355;BME280;46198;51.464;-0.066;2023-06-22T10:24:44;101695.47;;;25.28;64.25
60355;BME280;46198;51.464;-0.066;2023-06-22T10:27:12;101698.19;;;25.33;63.72
60355;BME280;46198;51.464;-0.066;2023-06-22T10:29:44;101692.56;;;25.38;57.12
60355;BME280;46198;51.464;-0.066;2023-06-22T10:32:17;101693.22;;;25.30;60.25
60355;BME280;46198;51.464;-0.066;2023-06-22T10:34:45;101688.44;;;25.11;65.64
60355;BME280;46198;51.464;-0.066;2023-06-22T10:37:14;101692.47;;;25.43;67.26
60355;BME280;46198;51.464;-0.066;2023-06-22T10:39:42;101689.75;;;25.95;63.35
60355;BME280;46198;51.464;-0.066;2023-06-22T10:42:12;101679.88;;;26.35;67.22
60355;BME280;46198;51.464;-0.066;2023-06-22T10:44:40;101685.75;;;26.80;65.29
60355;BME280;46198;51.464;-0.066;2023-06-22T10:47:10;101681.53;;;26.96;52.70
60355;BME280;46198;51.464;-0.066;2023-06-22T10:49:39;101676.34;;;26.76;48.96
60355;BME280;46198;51.464;-0.066;2023-06-22T10:52:08;101680.81;;;26.91;53.83
60355;BME280;46198;51.464;-0.066;2023-06-22T10:54:37;101670.91;;;27.26;55.10
60355;BME280;46198;51.464;-0.066;2023-06-22T10:57:06;101674.22;;;27.28;56.63
60355;BME280;46198;51.464;-0.066;2023-06-22T10:59:36;101676.16;;;26.86;53.35
60355;BME280;46198;51.464;-0.066;2023-06-22T11:02:04;101671.09;;;26.61;50.55
60355;BME280;46198;51.464;-0.066;2023-06-22T11:04:32;101680.38;;;26.70;52.43
60355;BME280;46198;51.464;-0.066;2023-06-22T11:07:01;101677.50;;;26.89;53.63
60355;BME280;46198;51.464;-0.066;2023-06-22T11:09:29;101678.94;;;26.59;51.13
60355;BME280;46198;51.464;-0.066;2023-06-22T11:11:58;101686.50;;;26.86;51.65
60355;BME280;46198;51.464;-0.066;2023-06-22T11:14:27;101685.53;;;27.32;54.45
60355;BME280;46198;51.464;-0.066;2023-06-22T11:16:56;101678.13;;;27.00;49.10
60355;BME280;46198;51.464;-0.066;2023-06-22T11:19:24;101673.34;;;27.28;49.63
60355;BME280;46198;51.464;-0.066;2023-06-22T11:21:52;101673.59;;;27.17;49.72
60355;BME280;46198;51.464;-0.066;2023-06-22T11:24:20;101671.41;;;27.28;52.92
60355;BME280;46198;51.464;-0.066;2023-06-22T11:26:49;101672.97;;;27.57;48.82
60355;BME280;46198;51.464;-0.066;2023-06-22T11:29:17;101671.84;;;27.58;49.71
60355;BME280;46198;51.464;-0.066;2023-06-22T11:32:04;101674.81;;;27.98;46.35
60355;BME280;46198;51.464;-0.066;2023-06-22T11:34:32;101669.81;;;28.40;48.85
60355;BME280;46198;51.464;-0.066;2023-06-22T11:37:01;101667.03;;;28.17;45.22
60355;BME280;46198;51.464;-0.066;2023-06-22T11:39:29;101668.34;;;28.11;44.12
60355;BME280;46198;51.464;-0.066;2023-06-22T11:42:08;101665.28;;;28.84;48.81
60355;BME280;46198;51.464;-0.066;2023-06-22T11:44:37;101664.56;;;29.18;45.55
60355;BME280;46198;51.464;-0.066;2023-06-22T11:47:07;101652.91;;;28.76;44.76
60355;BME280;46198;51.464;-0.066;2023-06-22T11:49:35;101655.94;;;28.97;44.88
60355;BME280;46198;51.464;-0.066;2023-06-22T11:52:04;101650.91;;;28.37;39.97
60355;BME280;46198;51.464;-0.066;2023-06-22T11:54:32;101639.66;;;28.99;40.02
60355;BME280;46198;51.464;-0.066;2023-06-22T11:57:00;101644.84;;;29.49;42.53
60355;BME280;46198;51.464;-0.066;2023-06-22T11:59:29;101631.03;;;29.79;41.02
60355;BME280;46198;51.464;-0.066;2023-06-22T12:01:57;101628.84;;;29.93;41.68
60355;BME280;46198;51.464;-0.066;2023-06-22T12:04:27;101634.94;;;30.60;39.65
60355;BME280;46198;51.464;-0.066;2023-06-22T12:06:55;101635.66;;;30.86;37.13
60355;BME280;46198;51.464;-0.066;2023-06-22T12:09:25;101637.09;;;29.90;39.84
60355;BME280;46198;51.464;-0.066;2023-06-22T12:11:53;101631.00;;;29.96;39.45
60355;BME280;46198;51.464;-0.066;2023-06-22T12:14:21;101636.28;;;29.72;37.17
60355;BME280;46198;51.464;-0.066;2023-06-22T12:16:49;101625.44;;;29.70;44.00
60355;BME280;46198;51.464;-0.066;2023-06-22T12:19:18;101629.19;;;29.05;39.21
60355;BME280;46198;51.464;-0.066;2023-06-22T12:21:47;101633.81;;;29.44;43.09
60355;BME280;46198;51.464;-0.066;2023-06-22T12:24:16;101634.63;;;29.36;41.03
60355;BME280;46198;51.464;-0.066;2023-06-22T12:26:44;101640.78;;;28.89;39.79
60355;BME280;46198;51.464;-0.066;2023-06-22T12:29:12;101641.16;;;28.57;40.63
60355;BME280;46198;51.464;-0.066;2023-06-22T12:31:40;101643.63;;;28.27;43.80
60355;BME280;46198;51.464;-0.066;2023-06-22T12:34:08;101631.38;;;28.37;40.96
60355;BME280;46198;51.464;-0.066;2023-06-22T12:36:36;101640.88;;;28.36;44.54
60355;BME280;46198;51.464;-0.066;2023-06-22T12:39:06;101635.38;;;27.91;40.02
60355;BME280;46198;51.464;-0.066;2023-06-22T12:41:34;101633.84;;;28.07;44.22
60355;BME280;46198;51.464;-0.066;2023-06-22T12:44:02;101630.69;;;28.09;45.20